createdAt,value
2024-05-09T00:03:10.944Z,100682.53
2024-05-09T00:08:15.619Z,100679.84
2024-05-09T00:13:20.135Z,100681.91
2024-05-09T00:18:23.715Z,100676.59
2024-05-09T00:23:27.196Z,100670.84
2024-05-09T00:28:30.636Z,100674.81
2024-05-09T00:33:34.303Z,100673.69
2024-05-09T00:38:37.866Z,100678.25
2024-05-09T00:43:41.657Z,100674.94
2024-05-09T00:48:45.541Z,100666.25
2024-05-09T00:53:49.900Z,100671.69
2024-05-09T00:58:53.873Z,100667.56
2024-05-09T01:03:57.713Z,100662.00
2024-05-09T01:09:00.956Z,100654.75
2024-05-09T01:14:04.461Z,100657.91
2024-05-09T01:19:24.225Z,100643.81
2024-05-09T01:24:27.865Z,100659.72
2024-05-09T01:29:31.246Z,100657.44
2024-05-09T01:34:34.632Z,100651.16
2024-05-09T01:39:38.003Z,100654.63
2024-05-09T01:44:41.526Z,100660.84
2024-05-09T01:49:44.998Z,100664.72
2024-05-09T01:54:48.409Z,100657.47
2024-05-09T01:59:51.815Z,100662.97
2024-05-09T02:04:55.462Z,100658.47
2024-05-09T02:09:59.073Z,100658.47
2024-05-09T02:15:02.564Z,100660.44
2024-05-09T02:20:29.956Z,100661.19
2024-05-09T02:25:57.249Z,100658.75
2024-05-09T02:31:14.387Z,100661.69
2024-05-09T02:36:36.181Z,100651.03
2024-05-09T02:41:57.963Z,100664.59
2024-05-09T02:47:04.733Z,100659.25
2024-05-09T02:52:08.040Z,100661.50
2024-05-09T02:57:11.640Z,100668.53
2024-05-09T03:02:15.300Z,100669.69
2024-05-09T03:07:20.193Z,100672.28
2024-05-09T03:12:24.052Z,100669.22
2024-05-09T03:17:32.146Z,100679.53
2024-05-09T03:22:36.046Z,100676.91
2024-05-09T03:27:39.698Z,100675.25
2024-05-09T03:32:45.411Z,100680.72
2024-05-09T03:37:49.132Z,100684.28
2024-05-09T03:42:52.484Z,100694.72
2024-05-09T03:47:56.270Z,100687.97
2024-05-09T03:53:00.275Z,100690.25
2024-05-09T03:58:03.846Z,100681.50
2024-05-09T04:03:10.181Z,100696.31
2024-05-09T04:08:16.139Z,100684.53
2024-05-09T04:13:19.334Z,100686.19
2024-05-09T04:18:22.828Z,100690.91
2024-05-09T04:23:26.335Z,100692.31
2024-05-09T04:28:29.755Z,100682.50
2024-05-09T04:33:33.391Z,100682.41
2024-05-09T04:39:08.725Z,100690.31
2024-05-09T04:44:12.286Z,100686.44
2024-05-09T04:49:16.038Z,100686.84
2024-05-09T04:54:26.272Z,100691.56
2024-05-09T04:59:37.471Z,100682.91
2024-05-09T05:04:41.777Z,100683.53
2024-05-09T05:09:45.264Z,100683.75
2024-05-09T05:14:48.663Z,100682.94
2024-05-09T05:19:52.303Z,100681.59
2024-05-09T05:24:55.835Z,100688.69
2024-05-09T05:29:59.361Z,100682.63
2024-05-09T05:35:02.925Z,100683.31
2024-05-09T05:40:09.383Z,100694.69
2024-05-09T05:45:12.922Z,100679.97
2024-05-09T05:50:24.599Z,100676.03
2024-05-09T05:55:35.501Z,100670.81
2024-05-09T06:00:40.449Z,100671.72
2024-05-09T06:05:46.268Z,100671.13
2024-05-09T06:10:49.950Z,100668.03
2024-05-09T06:15:54.820Z,100675.38
2024-05-09T06:20:58.362Z,100680.63
2024-05-09T06:26:02.012Z,100685.56
2024-05-09T06:31:05.513Z,100690.63
2024-05-09T06:36:09.272Z,100691.06
2024-05-09T06:41:12.885Z,100701.28
2024-05-09T06:46:16.313Z,100687.16
2024-05-09T06:51:19.641Z,100693.69
2024-05-09T06:56:23.866Z,100693.78
2024-05-09T07:01:27.411Z,100692.22
2024-05-09T07:06:30.809Z,100692.38
2024-05-09T07:11:34.314Z,100693.81
2024-05-09T07:16:37.781Z,100695.03
2024-05-09T07:21:41.460Z,100695.88
2024-05-09T07:26:44.966Z,100677.69
2024-05-09T07:31:48.377Z,100685.25
2024-05-09T07:36:52.593Z,100690.50
2024-05-09T07:41:56.863Z,100692.03
2024-05-09T07:57:13.766Z,100679.19
2024-05-09T08:02:17.337Z,100682.38
2024-05-09T08:07:21.131Z,100679.66
2024-05-09T08:12:24.519Z,100685.97
2024-05-09T08:17:27.812Z,100675.75
2024-05-09T08:22:32.421Z,100681.56
2024-05-09T08:27:37.117Z,100685.56
2024-05-09T08:32:41.611Z,100690.84
2024-05-09T08:37:45.064Z,100684.47
2024-05-09T08:42:56.391Z,100681.41
2024-05-09T08:48:04.210Z,100675.19
2024-05-09T08:53:09.113Z,100680.75
2024-05-09T08:58:20.246Z,100675.03
2024-05-09T09:03:28.744Z,100676.31
2024-05-09T09:08:32.505Z,100673.06
2024-05-09T09:13:35.886Z,100661.31
2024-05-09T09:18:39.514Z,100675.03
2024-05-09T09:23:42.952Z,100677.47
2024-05-09T09:28:46.190Z,100664.53
2024-05-09T09:33:49.784Z,100685.13
2024-05-09T09:38:53.359Z,100674.53
2024-05-09T09:43:58.670Z,100684.53
2024-05-09T09:49:02.520Z,100674.53
2024-05-09T09:54:08.177Z,100668.22
2024-05-09T09:59:14.871Z,100666.72
2024-05-09T10:04:19.310Z,100668.50
2024-05-09T10:09:23.420Z,100662.13
2024-05-09T10:14:26.764Z,100653.09
2024-05-09T10:19:31.887Z,100651.88
2024-05-09T10:25:08.360Z,100670.09
2024-05-09T10:30:29.701Z,100663.88
2024-05-09T10:35:39.142Z,100660.88
2024-05-09T10:40:43.522Z,100647.38
2024-05-09T10:45:47.092Z,100640.84
2024-05-09T10:50:50.676Z,100644.41
2024-05-09T10:56:01.827Z,100632.94
2024-05-09T11:01:07.254Z,100629.59
2024-05-09T11:06:13.014Z,100620.03
2024-05-09T11:11:17.206Z,100623.75
2024-05-09T11:16:22.394Z,100628.00
2024-05-09T11:21:26.346Z,100625.25
2024-05-09T11:26:32.257Z,100627.78
2024-05-09T11:31:49.065Z,100621.50
2024-05-09T11:36:52.653Z,100613.91
2024-05-09T11:41:56.040Z,100614.97
2024-05-09T11:46:59.680Z,100610.50
2024-05-09T11:52:03.163Z,100612.34
2024-05-09T11:57:07.203Z,100601.97
2024-05-09T12:02:12.032Z,100601.69
2024-05-09T12:07:20.996Z,100603.78
2024-05-09T12:12:24.447Z,100612.25
2024-05-09T12:17:29.207Z,100610.06
2024-05-09T12:22:32.755Z,100598.66
2024-05-09T12:27:37.566Z,100608.91
2024-05-09T12:32:41.292Z,100605.66
2024-05-09T12:37:45.474Z,100603.16
2024-05-09T12:42:54.079Z,100604.09
2024-05-09T12:48:08.172Z,100597.63
2024-05-09T12:53:12.314Z,100583.88
2024-05-09T12:58:16.984Z,100576.41
2024-05-09T13:03:21.033Z,100571.00
2024-05-09T13:08:24.984Z,100564.56
2024-05-09T13:13:30.310Z,100560.22
2024-05-09T13:18:36.556Z,100551.91
2024-05-09T13:23:40.140Z,100555.13
2024-05-09T13:28:43.610Z,100549.84
2024-05-09T13:33:47.172Z,100539.44
2024-05-09T13:38:50.837Z,100530.72
2024-05-09T13:43:54.386Z,100538.50
2024-05-09T13:48:57.899Z,100535.97
2024-05-09T13:54:33.692Z,100538.94
2024-05-09T13:59:40.526Z,100525.34
2024-05-09T14:05:30.320Z,100531.91
2024-05-09T14:11:25.891Z,100506.41
2024-05-09T14:16:33.610Z,100501.66
2024-05-09T14:21:37.216Z,100506.88
2024-05-09T14:27:19.311Z,100503.25
2024-05-09T14:32:28.778Z,100488.81
2024-05-09T14:37:33.152Z,100492.03
2024-05-09T14:42:37.725Z,100493.03
2024-05-09T14:47:45.026Z,100472.03
2024-05-09T14:52:48.445Z,100482.84
2024-05-09T14:57:52.019Z,100476.41
2024-05-09T15:02:56.913Z,100464.69
2024-05-09T15:08:01.019Z,100460.56
2024-05-09T15:13:05.017Z,100466.66
2024-05-09T15:18:09.205Z,100461.34
2024-05-09T15:23:12.897Z,100455.53
2024-05-09T15:28:16.755Z,100455.84
2024-05-09T15:33:20.740Z,100437.16
2024-05-09T15:38:24.482Z,100435.53
2024-05-09T15:43:28.485Z,100435.75
2024-05-09T15:48:32.300Z,100428.84
2024-05-09T15:53:35.927Z,100422.75
2024-05-09T15:58:39.487Z,100416.38
2024-05-09T16:03:43.308Z,100415.41
2024-05-09T16:08:46.953Z,100415.41
2024-05-09T16:14:08.733Z,100418.28
2024-05-09T16:19:46.748Z,100416.28
2024-05-09T16:24:50.402Z,100407.44
2024-05-09T16:29:58.270Z,100405.56
2024-05-09T16:35:01.938Z,100401.56
2024-05-09T16:40:07.755Z,100404.81
2024-05-09T16:45:13.592Z,100404.34
2024-05-09T16:50:25.674Z,100404.50
2024-05-09T16:55:32.344Z,100410.16
2024-05-09T17:00:41.249Z,100409.84
2024-05-09T17:05:47.659Z,100405.59
2024-05-09T17:10:51.997Z,100410.06
2024-05-09T17:15:55.868Z,100406.00
2024-05-09T17:20:59.399Z,100404.72
2024-05-09T17:26:03.698Z,100409.59
2024-05-09T17:31:07.992Z,100409.09
2024-05-09T17:36:11.549Z,100407.97
2024-05-09T17:41:15.101Z,100413.56
2024-05-09T17:46:18.621Z,100400.78
2024-05-09T17:51:22.358Z,100407.34
2024-05-09T17:56:26.306Z,100401.53
2024-05-09T18:01:30.324Z,100400.88
2024-05-09T18:06:34.287Z,100410.06
2024-05-09T18:11:37.819Z,100403.25
2024-05-09T18:16:41.322Z,100405.50
2024-05-09T18:21:44.904Z,100403.25
2024-05-09T18:26:50.050Z,100401.97
2024-05-09T18:31:53.638Z,100406.50
2024-05-09T18:36:57.750Z,100408.34
2024-05-09T18:42:02.624Z,100408.91
2024-05-09T18:47:07.240Z,100412.69
2024-05-09T18:52:12.766Z,100408.81
2024-05-09T18:57:17.028Z,100420.84
2024-05-09T19:02:20.756Z,100424.44
2024-05-09T19:07:25.259Z,100429.53
2024-05-09T19:13:01.104Z,100431.09
2024-05-09T19:18:37.385Z,100426.84
2024-05-09T19:23:47.067Z,100431.13
2024-05-09T19:28:55.718Z,100434.91
2024-05-09T19:33:59.088Z,100439.38
2024-05-09T19:39:07.133Z,100443.06
2024-05-09T19:44:12.185Z,100448.78
2024-05-09T19:49:16.251Z,100447.34
2024-05-09T19:54:20.611Z,100451.84
2024-05-09T19:59:24.339Z,100452.66
2024-05-09T20:04:27.923Z,100455.91
2024-05-09T20:09:31.644Z,100456.00
2024-05-09T20:14:36.225Z,100450.78
2024-05-09T20:19:39.998Z,100457.72
2024-05-09T20:24:43.229Z,100451.34
2024-05-09T20:29:46.763Z,100451.31
2024-05-09T20:34:52.139Z,100447.72
2024-05-09T20:39:55.618Z,100445.00
2024-05-09T20:44:59.133Z,100446.84
2024-05-09T20:50:02.750Z,100444.59
2024-05-09T20:55:06.700Z,100449.22
2024-05-09T21:00:15.372Z,100447.16
2024-05-09T21:05:22.633Z,100449.84
2024-05-09T21:10:27.276Z,100442.69
2024-05-09T21:15:33.268Z,100446.22
2024-05-09T21:20:37.851Z,100446.94
2024-05-09T21:25:41.594Z,100444.75
2024-05-09T21:30:45.043Z,100449.09
2024-05-09T21:35:48.524Z,100442.72
2024-05-09T21:40:54.484Z,100433.66
2024-05-09T21:45:57.909Z,100436.91
2024-05-09T21:51:01.457Z,100445.88
2024-05-09T21:56:04.982Z,100445.09
2024-05-09T22:01:08.535Z,100446.41
2024-05-09T22:06:12.094Z,100442.28
2024-05-09T22:11:15.645Z,100441.63
2024-05-09T22:16:19.107Z,100435.34
2024-05-09T22:21:22.759Z,100437.25
2024-05-09T22:26:26.122Z,100431.41
2024-05-09T22:31:29.516Z,100437.78
2024-05-09T22:36:32.851Z,100442.00
2024-05-09T22:41:38.403Z,100437.53
2024-05-09T22:46:43.413Z,100438.56
2024-05-09T22:51:46.984Z,100437.56
2024-05-09T22:57:12.935Z,100432.78
2024-05-09T23:02:39.274Z,100438.63
2024-05-09T23:07:46.905Z,100429.84
2024-05-09T23:12:50.333Z,100413.78
2024-05-09T23:17:54.034Z,100423.47
2024-05-09T23:22:58.620Z,100413.84
2024-05-09T23:28:02.681Z,100416.94
2024-05-09T23:33:06.833Z,100406.69
2024-05-09T23:38:10.527Z,100407.97
2024-05-09T23:43:15.018Z,100408.69
2024-05-09T23:48:19.590Z,100400.31
2024-05-09T23:53:23.114Z,100397.69
2024-05-09T23:58:31.960Z,100408.03
